sensor_id;sensor_type;location;lat;lon;timestamp;pressure;altitude;pressure_sealevel;temperature;humidity
15308;BME280;7755;52.208;6.964;2023-04-08T00:01:42;101868.59;;;5.41;100.00
15308;BME280;7755;52.208;6.964;2023-04-08T00:05:45;101866.25;;;5.38;100.00
15308;BME280;7755;52.208;6.964;2023-04-08T00:14:35;101866.81;;;5.25;100.00
15308;BME280;7755;52.208;6.964;2023-04-08T00:18:38;101881.31;;;5.24;100.00
15308;BME280;7755;52.208;6.964;2023-04-08T00:22:41;101882.53;;;5.22;100.00
15308;BME280;7755;52.208;6.964;2023-04-08T00:26:56;101872.28;;;5.17;100.00
15308;BME280;7755;52.208;6.964;2023-04-08T00:31:01;101882.41;;;5.15;100.00
15308;BME280;7755;52.208;6.964;2023-04-08T00:35:04;101881.25;;;5.09;100.00
15308;BME280;7755;52.208;6.964;2023-04-08T00:39:08;101887.97;;;5.05;100.00
15308;BME280;7755;52.208;6.964;2023-04-08T00:43:11;101885.66;;;5.02;100.00
15308;BME280;7755;52.208;6.964;2023-04-08T00:47:15;101886.81;;;5.00;100.00
15308;BME280;7755;52.208;6.964;2023-04-08T00:51:19;101893.59;;;4.96;100.00
15308;BME280;7755;52.208;6.964;2023-04-08T00:55:22;101892.25;;;4.91;100.00
15308;BME280;7755;52.208;6.964;2023-04-08T00:59:26;101890.91;;;4.87;100.00
15308;BME280;7755;52.208;6.964;2023-04-08T01:03:45;101886.06;;;4.83;100.00
15308;BME280;7755;52.208;6.964;2023-04-08T01:07:52;101885.91;;;4.76;100.00
15308;BME280;7755;52.208;6.964;2023-04-08T01:11:55;101899.88;;;4.72;100.00
15308;BME280;7755;52.208;6.964;2023-04-08T01:16:01;101895.53;;;4.71;100.00
15308;BME280;7755;52.208;6.964;2023-04-08T01:20:07;101903.09;;;4.67;100.00
15308;BME280;7755;52.208;6.964;2023-04-08T01:24:17;101897.91;;;4.57;100.00
15308;BME280;7755;52.208;6.964;2023-04-08T01:28:28;101906.34;;;4.54;100.00
15308;BME280;7755;52.208;6.964;2023-04-08T01:32:33;101908.34;;;4.52;100.00
15308;BME280;7755;52.208;6.964;2023-04-08T01:36:37;101904.16;;;4.50;100.00
15308;BME280;7755;52.208;6.964;2023-04-08T01:40:42;101908.19;;;4.46;100.00
15308;BME280;7755;52.208;6.964;2023-04-08T01:44:47;101905.00;;;4.42;100.00
15308;BME280;7755;52.208;6.964;2023-04-08T01:48:51;101912.56;;;4.38;100.00
15308;BME280;7755;52.208;6.964;2023-04-08T01:52:58;101912.94;;;4.35;100.00
15308;BME280;7755;52.208;6.964;2023-04-08T01:57:02;101913.44;;;4.31;100.00
15308;BME280;7755;52.208;6.964;2023-04-08T02:01:10;101922.53;;;4.30;100.00
15308;BME280;7755;52.208;6.964;2023-04-08T02:05:14;101913.25;;;4.24;100.00
15308;BME280;7755;52.208;6.964;2023-04-08T02:09:34;101914.63;;;4.20;100.00
15308;BME280;7755;52.208;6.964;2023-04-08T02:13:37;101921.84;;;4.20;100.00
15308;BME280;7755;52.208;6.964;2023-04-08T02:17:45;101915.78;;;4.18;100.00
15308;BME280;7755;52.208;6.964;2023-04-08T02:21:56;101917.16;;;4.14;100.00
15308;BME280;7755;52.208;6.964;2023-04-08T02:26:00;101919.31;;;4.10;100.00
15308;BME280;7755;52.208;6.964;2023-04-08T02:30:05;101910.25;;;4.03;100.00
15308;BME280;7755;52.208;6.964;2023-04-08T02:34:11;101920.16;;;4.02;100.00
15308;BME280;7755;52.208;6.964;2023-04-08T02:38:15;101923.34;;;3.98;100.00
15308;BME280;7755;52.208;6.964;2023-04-08T02:42:18;101936.47;;;3.93;100.00
15308;BME280;7755;52.208;6.964;2023-04-08T02:46:21;101936.81;;;3.90;100.00
15308;BME280;7755;52.208;6.964;2023-04-08T02:50:26;101943.38;;;3.87;100.00
15308;BME280;7755;52.208;6.964;2023-04-08T02:54:28;101948.91;;;3.86;100.00
15308;BME280;7755;52.208;6.964;2023-04-08T02:58:37;101949.91;;;3.84;100.00
15308;BME280;7755;52.208;6.964;2023-04-08T03:02:56;101944.88;;;3.81;100.00
15308;BME280;7755;52.208;6.964;2023-04-08T03:07:00;101954.97;;;3.79;100.00
15308;BME280;7755;52.208;6.964;2023-04-08T03:11:13;101953.25;;;3.78;100.00
15308;BME280;7755;52.208;6.964;2023-04-08T03:15:15;101950.91;;;3.75;100.00
15308;BME280;7755;52.208;6.964;2023-04-08T03:19:18;101949.53;;;3.71;100.00
15308;BME280;7755;52.208;6.964;2023-04-08T03:23:22;101952.56;;;3.68;100.00
15308;BME280;7755;52.208;6.964;2023-04-08T03:27:25;101949.34;;;3.65;100.00
15308;BME280;7755;52.208;6.964;2023-04-08T03:31:28;101960.13;;;3.65;100.00
15308;BME280;7755;52.208;6.964;2023-04-08T03:35:31;101956.25;;;3.59;100.00
15308;BME280;7755;52.208;6.964;2023-04-08T03:39:35;101967.16;;;3.58;100.00
15308;BME280;7755;52.208;6.964;2023-04-08T03:43:38;101961.28;;;3.54;100.00
15308;BME280;7755;52.208;6.964;2023-04-08T03:47:41;101973.34;;;3.50;100.00
15308;BME280;7755;52.208;6.964;2023-04-08T03:51:43;101971.50;;;3.50;100.00
15308;BME280;7755;52.208;6.964;2023-04-08T03:55:49;101964.78;;;3.46;100.00
15308;BME280;7755;52.208;6.964;2023-04-08T03:59:52;101967.78;;;3.43;100.00
15308;BME280;7755;52.208;6.964;2023-04-08T04:03:55;101962.41;;;3.43;100.00
15308;BME280;7755;52.208;6.964;2023-04-08T04:07:58;101969.63;;;3.43;100.00
15308;BME280;7755;52.208;6.964;2023-04-08T04:12:02;101968.78;;;3.42;100.00
15308;BME280;7755;52.208;6.964;2023-04-08T04:16:05;101971.47;;;3.42;100.00
15308;BME280;7755;52.208;6.964;2023-04-08T04:20:09;101976.38;;;3.47;100.00
15308;BME280;7755;52.208;6.964;2023-04-08T04:24:12;101971.50;;;3.50;100.00
15308;BME280;7755;52.208;6.964;2023-04-08T04:28:17;101983.47;;;3.56;100.00
15308;BME280;7755;52.208;6.964;2023-04-08T04:32:20;101984.84;;;3.60;100.00
15308;BME280;7755;52.208;6.964;2023-04-08T04:36:23;101986.88;;;3.66;100.00
15308;BME280;7755;52.208;6.964;2023-04-08T04:40:26;101985.22;;;3.73;100.00
15308;BME280;7755;52.208;6.964;2023-04-08T04:44:30;101987.06;;;3.81;100.00
15308;BME280;7755;52.208;6.964;2023-04-08T04:48:35;101985.22;;;3.90;100.00
15308;BME280;7755;52.208;6.964;2023-04-08T04:52:38;101987.25;;;3.96;100.00
15308;BME280;7755;52.208;6.964;2023-04-08T04:56:41;101986.78;;;4.00;100.00
15308;BME280;7755;52.208;6.964;2023-04-08T05:00:46;101997.53;;;4.08;100.00
15308;BME280;7755;52.208;6.964;2023-04-08T05:04:48;101995.22;;;4.14;100.00
15308;BME280;7755;52.208;6.964;2023-04-08T05:08:54;102007.31;;;4.18;100.00
15308;BME280;7755;52.208;6.964;2023-04-08T05:12:57;101998.38;;;4.25;100.00
15308;BME280;7755;52.208;6.964;2023-04-08T05:17:29;102004.66;;;4.34;100.00
15308;BME280;7755;52.208;6.964;2023-04-08T05:21:32;102003.28;;;4.38;100.00
15308;BME280;7755;52.208;6.964;2023-04-08T05:25:55;102013.56;;;4.43;100.00
15308;BME280;7755;52.208;6.964;2023-04-08T05:29:57;102016.41;;;4.49;100.00
15308;BME280;7755;52.208;6.964;2023-04-08T05:34:02;102020.97;;;4.57;100.00
15308;BME280;7755;52.208;6.964;2023-04-08T05:38:06;102021.44;;;4.60;100.00
15308;BME280;7755;52.208;6.964;2023-04-08T05:42:09;102022.63;;;4.66;100.00
15308;BME280;7755;52.208;6.964;2023-04-08T05:46:13;102040.16;;;4.70;100.00
15308;BME280;7755;52.208;6.964;2023-04-08T05:50:18;102035.25;;;4.74;100.00
15308;BME280;7755;52.208;6.964;2023-04-08T05:54:21;102040.31;;;4.77;100.00
15308;BME280;7755;52.208;6.964;2023-04-08T05:58:24;102064.38;;;4.78;100.00
15308;BME280;7755;52.208;6.964;2023-04-08T06:02:28;102059.84;;;4.79;100.00
15308;BME280;7755;52.208;6.964;2023-04-08T06:06:36;102070.78;;;4.77;100.00
15308;BME280;7755;52.208;6.964;2023-04-08T06:10:47;102065.06;;;4.80;100.00
15308;BME280;7755;52.208;6.964;2023-04-08T06:14:52;102073.13;;;4.80;100.00
15308;BME280;7755;52.208;6.964;2023-04-08T06:18:56;102072.81;;;4.83;100.00
15308;BME280;7755;52.208;6.964;2023-04-08T06:23:00;102082.94;;;4.81;100.00
15308;BME280;7755;52.208;6.964;2023-04-08T06:27:03;102082.75;;;4.91;100.00
15308;BME280;7755;52.208;6.964;2023-04-08T06:31:06;102090.16;;;4.97;100.00
15308;BME280;7755;52.208;6.964;2023-04-08T06:35:09;102096.53;;;5.04;100.00
15308;BME280;7755;52.208;6.964;2023-04-08T06:39:13;102100.41;;;5.18;100.00
15308;BME280;7755;52.208;6.964;2023-04-08T06:43:17;102089.59;;;5.26;100.00
15308;BME280;7755;52.208;6.964;2023-04-08T06:47:20;102096.50;;;5.37;100.00
15308;BME280;7755;52.208;6.964;2023-04-08T06:51:23;102097.81;;;5.49;100.00
15308;BME280;7755;52.208;6.964;2023-04-08T06:55:27;102095.06;;;5.65;100.00
15308;BME280;7755;52.208;6.964;2023-04-08T06:59:30;102095.81;;;5.82;100.00
15308;BME280;7755;52.208;6.964;2023-04-08T07:03:33;102108.47;;;5.98;100.00
15308;BME280;7755;52.208;6.964;2023-04-08T07:07:36;102108.91;;;6.10;100.00
15308;BME280;7755;52.208;6.964;2023-04-08T07:11:41;102112.31;;;6.35;100.00
15308;BME280;7755;52.208;6.964;2023-04-08T07:15:44;102114.91;;;6.74;100.00
15308;BME280;7755;52.208;6.964;2023-04-08T07:19:47;102118.84;;;7.09;100.00
15308;BME280;7755;52.208;6.964;2023-04-08T07:23:50;102117.22;;;7.37;100.00
15308;BME280;7755;52.208;6.964;2023-04-08T07:27:54;102127.41;;;7.65;100.00
15308;BME280;7755;52.208;6.964;2023-04-08T07:31:57;102136.66;;;7.85;100.00
15308;BME280;7755;52.208;6.964;2023-04-08T07:36:00;102131.50;;;8.20;100.00
15308;BME280;7755;52.208;6.964;2023-04-08T07:40:04;102131.88;;;8.68;100.00
15308;BME280;7755;52.208;6.964;2023-04-08T07:44:09;102132.34;;;8.99;100.00
15308;BME280;7755;52.208;6.964;2023-04-08T07:48:12;102129.69;;;9.06;100.00
15308;BME280;7755;52.208;6.964;2023-04-08T07:52:15;102125.44;;;9.18;100.00
15308;BME280;7755;52.208;6.964;2023-04-08T07:56:18;102129.38;;;9.44;100.00
15308;BME280;7755;52.208;6.964;2023-04-08T08:00:24;102135.22;;;9.75;100.00
15308;BME280;7755;52.208;6.964;2023-04-08T08:04:28;102134.78;;;10.13;100.00
15308;BME280;7755;52.208;6.964;2023-04-08T08:08:32;102148.88;;;10.23;99.24
15308;BME280;7755;52.208;6.964;2023-04-08T08:12:38;102153.81;;;10.13;98.22
15308;BME280;7755;52.208;6.964;2023-04-08T08:16:44;102143.50;;;10.02;98.42
15308;BME280;7755;52.208;6.964;2023-04-08T08:20:47;102146.84;;;9.97;99.21
15308;BME280;7755;52.208;6.964;2023-04-08T08:24:54;102145.59;;;10.00;99.12
15308;BME280;7755;52.208;6.964;2023-04-08T08:28:57;102156.03;;;9.96;99.14
15308;BME280;7755;52.208;6.964;2023-04-08T08:33:02;102160.81;;;9.94;99.06
15308;BME280;7755;52.208;6.964;2023-04-08T08:37:06;102168.59;;;9.97;98.67
15308;BME280;7755;52.208;6.964;2023-04-08T08:41:11;102164.63;;;10.00;98.26
15308;BME280;7755;52.208;6.964;2023-04-08T08:45:16;102166.31;;;10.07;98.92
15308;BME280;7755;52.208;6.964;2023-04-08T08:49:31;102174.53;;;10.21;97.70
15308;BME280;7755;52.208;6.964;2023-04-08T08:53:35;102167.41;;;10.61;98.05
15308;BME280;7755;52.208;6.964;2023-04-08T08:57:39;102176.28;;;11.09;96.14
15308;BME280;7755;52.208;6.964;2023-04-08T09:01:43;102186.81;;;11.39;93.11
15308;BME280;7755;52.208;6.964;2023-04-08T09:05:53;102197.25;;;11.48;91.20
15308;BME280;7755;52.208;6.964;2023-04-08T09:09:58;102191.41;;;11.52;89.26
15308;BME280;7755;52.208;6.964;2023-04-08T09:14:02;102189.94;;;11.56;88.91
15308;BME280;7755;52.208;6.964;2023-04-08T09:18:20;102193.50;;;11.43;88.96
15308;BME280;7755;52.208;6.964;2023-04-08T09:22:25;102192.88;;;11.34;88.21
15308;BME280;7755;52.208;6.964;2023-04-08T09:26:36;102189.72;;;11.37;88.09
15308;BME280;7755;52.208;6.964;2023-04-08T09:30:40;102195.16;;;11.57;86.46
15308;BME280;7755;52.208;6.964;2023-04-08T09:34:54;102187.19;;;11.69;86.69
15308;BME280;7755;52.208;6.964;2023-04-08T09:39:23;102192.22;;;11.85;85.01
15308;BME280;7755;52.208;6.964;2023-04-08T09:43:52;102191.16;;;11.80;84.55
15308;BME280;7755;52.208;6.964;2023-04-08T09:48:20;102186.16;;;12.48;83.44
15308;BME280;7755;52.208;6.964;2023-04-08T09:52:56;102183.94;;;13.08;80.80
15308;BME280;7755;52.208;6.964;2023-04-08T09:57:30;102173.97;;;13.20;78.23
15308;BME280;7755;52.208;6.964;2023-04-08T10:02:08;102179.34;;;13.58;78.45
15308;BME280;7755;52.208;6.964;2023-04-08T10:06:38;102179.53;;;13.82;76.43
15308;BME280;7755;52.208;6.964;2023-04-08T10:10:49;102164.06;;;14.12;73.41
15308;BME280;7755;52.208;6.964;2023-04-08T10:15:28;102173.16;;;14.25;72.44
15308;BME280;7755;52.208;6.964;2023-04-08T10:19:38;102182.66;;;14.40;71.84
15308;BME280;7755;52.208;6.964;2023-04-08T10:23:53;102176.69;;;14.50;70.14
15308;BME280;7755;52.208;6.964;2023-04-08T10:27:57;102174.97;;;14.67;71.08
15308;BME280;7755;52.208;6.964;2023-04-08T10:32:01;102179.31;;;14.57;70.60
15308;BME280;7755;52.208;6.964;2023-04-08T10:36:09;102183.25;;;14.42;69.73
15308;BME280;7755;52.208;6.964;2023-04-08T10:40:36;102186.44;;;14.39;70.70
15308;BME280;7755;52.208;6.964;2023-04-08T10:44:43;102172.38;;;14.36;71.43
15308;BME280;7755;52.208;6.964;2023-04-08T10:48:59;102174.41;;;14.10;70.72
15308;BME280;7755;52.208;6.964;2023-04-08T10:53:03;102171.00;;;13.72;72.11
15308;BME280;7755;52.208;6.964;2023-04-08T10:57:08;102176.47;;;13.72;72.82
15308;BME280;7755;52.208;6.964;2023-04-08T11:01:12;102173.09;;;13.76;74.63
15308;BME280;7755;52.208;6.964;2023-04-08T11:05:16;102179.38;;;13.95;74.80
15308;BME280;7755;52.208;6.964;2023-04-08T11:09:20;102182.19;;;14.07;74.65
15308;BME280;7755;52.208;6.964;2023-04-08T11:13:23;102189.66;;;14.00;75.05
15308;BME280;7755;52.208;6.964;2023-04-08T11:17:26;102182.66;;;14.04;75.57
15308;BME280;7755;52.208;6.964;2023-04-08T11:26:26;102173.47;;;14.16;76.02
15308;BME280;7755;52.208;6.964;2023-04-08T11:30:55;102176.66;;;14.32;75.19
15308;BME280;7755;52.208;6.964;2023-04-08T11:35:21;102173.78;;;14.27;75.02
15308;BME280;7755;52.208;6.964;2023-04-08T11:39:42;102176.56;;;14.38;75.67
15308;BME280;7755;52.208;6.964;2023-04-08T11:43:54;102170.72;;;14.35;74.93
15308;BME280;7755;52.208;6.964;2023-04-08T11:47:58;102174.75;;;14.32;75.65
15308;BME280;7755;52.208;6.964;2023-04-08T11:52:03;102168.06;;;14.28;75.67
15308;BME280;7755;52.208;6.964;2023-04-08T11:56:16;102177.88;;;13.99;77.27
15308;BME280;7755;52.208;6.964;2023-04-08T12:00:21;102193.16;;;14.07;77.73
15308;BME280;7755;52.208;6.964;2023-04-08T12:04:25;102190.41;;;14.07;77.76
15308;BME280;7755;52.208;6.964;2023-04-08T12:08:30;102184.31;;;13.86;77.66
15308;BME280;7755;52.208;6.964;2023-04-08T12:12:33;102189.78;;;13.86;79.33
15308;BME280;7755;52.208;6.964;2023-04-08T12:16:38;102182.81;;;13.90;78.68
15308;BME280;7755;52.208;6.964;2023-04-08T12:20:43;102196.78;;;14.01;78.99
15308;BME280;7755;52.208;6.964;2023-04-08T12:24:47;102195.22;;;14.11;78.92
15308;BME280;7755;52.208;6.964;2023-04-08T12:28:51;102196.97;;;14.24;79.25
15308;BME280;7755;52.208;6.964;2023-04-08T12:32:57;102192.59;;;14.35;79.04
15308;BME280;7755;52.208;6.964;2023-04-08T12:37:00;102200.22;;;14.14;78.57
15308;BME280;7755;52.208;6.964;2023-04-08T12:41:06;102205.63;;;14.03;78.80
15308;BME280;7755;52.208;6.964;2023-04-08T12:45:10;102197.53;;;14.08;79.63
15308;BME280;7755;52.208;6.964;2023-04-08T12:49:15;102207.66;;;14.07;79.43
15308;BME280;7755;52.208;6.964;2023-04-08T12:53:32;102207.25;;;13.85;79.85
15308;BME280;7755;52.208;6.964;2023-04-08T12:57:54;102199.34;;;13.52;81.15
15308;BME280;7755;52.208;6.964;2023-04-08T13:01:57;102197.91;;;13.50;82.30
15308;BME280;7755;52.208;6.964;2023-04-08T13:06:02;102197.09;;;13.49;83.12
15308;BME280;7755;52.208;6.964;2023-04-08T13:10:07;102202.31;;;13.51;83.07
15308;BME280;7755;52.208;6.964;2023-04-08T13:14:11;102198.28;;;13.53;83.16
15308;BME280;7755;52.208;6.964;2023-04-08T13:18:14;102187.75;;;13.57;83.02
15308;BME280;7755;52.208;6.964;2023-04-08T13:22:18;102194.38;;;13.68;83.16
15308;BME280;7755;52.208;6.964;2023-04-08T13:26:21;102203.88;;;13.65;82.08
15308;BME280;7755;52.208;6.964;2023-04-08T13:30:24;102191.09;;;13.59;82.13
15308;BME280;7755;52.208;6.964;2023-04-08T13:34:27;102199.88;;;13.43;82.62
15308;BME280;7755;52.208;6.964;2023-04-08T13:38:32;102191.72;;;13.36;82.68
15308;BME280;7755;52.208;6.964;2023-04-08T13:42:35;102198.50;;;13.27;83.79
15308;BME280;7755;52.208;6.964;2023-04-08T13:46:38;102189.06;;;13.29;83.66
15308;BME280;7755;52.208;6.964;2023-04-08T13:50:43;102190.25;;;13.33;83.83
15308;BME280;7755;52.208;6.964;2023-04-08T13:54:54;102197.75;;;13.13;84.05
15308;BME280;7755;52.208;6.964;2023-04-08T13:58:57;102188.28;;;13.16;83.40
15308;BME280;7755;52.208;6.964;2023-04-08T14:03:02;102192.78;;;13.03;83.98
15308;BME280;7755;52.208;6.964;2023-04-08T14:07:06;102186.44;;;13.09;84.72
15308;BME280;7755;52.208;6.964;2023-04-08T14:11:11;102192.91;;;13.15;84.93
15308;BME280;7755;52.208;6.964;2023-04-08T14:15:15;102185.53;;;13.22;84.49
15308;BME280;7755;52.208;6.964;2023-04-08T14:19:18;102187.03;;;13.11;83.90
15308;BME280;7755;52.208;6.964;2023-04-08T14:23:22;102196.94;;;13.06;84.75
15308;BME280;7755;52.208;6.964;2023-04-08T14:27:27;102190.00;;;13.10;85.45
15308;BME280;7755;52.208;6.964;2023-04-08T14:31:30;102189.59;;;13.06;85.11
15308;BME280;7755;52.208;6.964;2023-04-08T14:35:33;102190.94;;;12.97;85.74
15308;BME280;7755;52.208;6.964;2023-04-08T14:39:38;102185.16;;;13.12;85.85
15308;BME280;7755;52.208;6.964;2023-04-08T14:43:44;102188.09;;;13.10;86.30
15308;BME280;7755;52.208;6.964;2023-04-08T14:48:08;102192.72;;;13.10;85.65
15308;BME280;7755;52.208;6.964;2023-04-08T14:52:12;102195.72;;;13.02;86.67
15308;BME280;7755;52.208;6.964;2023-04-08T14:56:15;102192.91;;;12.83;86.36
15308;BME280;7755;52.208;6.964;2023-04-08T15:00:19;102201.78;;;12.72;86.17
15308;BME280;7755;52.208;6.964;2023-04-08T15:04:22;102209.97;;;12.72;87.43
15308;BME280;7755;52.208;6.964;2023-04-08T15:08:25;102199.88;;;12.73;87.78
15308;BME280;7755;52.208;6.964;2023-04-08T15:12:29;102197.63;;;12.63;87.91
15308;BME280;7755;52.208;6.964;2023-04-08T15:16:35;102190.53;;;12.55;88.07
15308;BME280;7755;52.208;6.964;2023-04-08T15:20:38;102191.72;;;12.66;88.96
15308;BME280;7755;52.208;6.964;2023-04-08T15:24:42;102199.53;;;12.63;88.70
15308;BME280;7755;52.208;6.964;2023-04-08T15:28:52;102187.31;;;12.65;89.21
15308;BME280;7755;52.208;6.964;2023-04-08T15:33:03;102176.63;;;12.64;89.18
15308;BME280;7755;52.208;6.964;2023-04-08T15:37:28;102188.88;;;12.54;89.60
15308;BME280;7755;52.208;6.964;2023-04-08T15:41:46;102182.38;;;12.49;89.94
15308;BME280;7755;52.208;6.964;2023-04-08T15:46:01;102190.38;;;12.44;90.58
15308;BME280;7755;52.208;6.964;2023-04-08T15:50:11;102179.06;;;12.40;90.68
15308;BME280;7755;52.208;6.964;2023-04-08T15:54:16;102187.69;;;12.30;90.77
15308;BME280;7755;52.208;6.964;2023-04-08T15:58:21;102184.97;;;12.30;91.04
15308;BME280;7755;52.208;6.964;2023-04-08T16:02:24;102190.88;;;12.27;91.62
15308;BME280;7755;52.208;6.964;2023-04-08T16:06:29;102192.94;;;12.25;92.23
15308;BME280;7755;52.208;6.964;2023-04-08T16:10:34;102190.88;;;12.21;91.93
15308;BME280;7755;52.208;6.964;2023-04-08T16:14:50;102183.94;;;12.18;92.12
15308;BME280;7755;52.208;6.964;2023-04-08T16:19:01;102178.72;;;12.17;92.62
15308;BME280;7755;52.208;6.964;2023-04-08T16:23:06;102171.78;;;12.21;93.08
15308;BME280;7755;52.208;6.964;2023-04-08T16:27:09;102182.28;;;12.17;93.09
15308;BME280;7755;52.208;6.964;2023-04-08T16:31:31;102182.28;;;12.17;93.56
15308;BME280;7755;52.208;6.964;2023-04-08T16:35:34;102178.91;;;12.22;93.50
15308;BME280;7755;52.208;6.964;2023-04-08T16:39:39;102181.91;;;12.14;93.21
15308;BME280;7755;52.208;6.964;2023-04-08T16:43:44;102175.84;;;11.98;93.54
15308;BME280;7755;52.208;6.964;2023-04-08T16:47:47;102173.78;;;11.94;94.36
15308;BME280;7755;52.208;6.964;2023-04-08T16:51:50;102175.22;;;11.90;95.04
15308;BME280;7755;52.208;6.964;2023-04-08T16:55:55;102172.53;;;11.83;95.49
15308;BME280;7755;52.208;6.964;2023-04-08T16:59:58;102167.88;;;11.77;95.44
15308;BME280;7755;52.208;6.964;2023-04-08T17:04:01;102189.72;;;11.84;95.37
15308;BME280;7755;52.208;6.964;2023-04-08T17:08:06;102190.34;;;11.72;95.97
15308;BME280;7755;52.208;6.964;2023-04-08T17:12:10;102184.91;;;11.66;96.44
15308;BME280;7755;52.208;6.964;2023-04-08T17:16:14;102198.31;;;11.67;96.75
15308;BME280;7755;52.208;6.964;2023-04-08T17:20:17;102196.81;;;11.65;96.93
15308;BME280;7755;52.208;6.964;2023-04-08T17:24:20;102198.31;;;11.61;96.74
15308;BME280;7755;52.208;6.964;2023-04-08T17:28:25;102203.97;;;11.59;97.11
15308;BME280;7755;52.208;6.964;2023-04-08T17:32:34;102201.88;;;11.55;97.03
15308;BME280;7755;52.208;6.964;2023-04-08T17:36:37;102199.97;;;11.55;97.22
15308;BME280;7755;52.208;6.964;2023-04-08T17:40:40;102209.22;;;11.54;97.45
15308;BME280;7755;52.208;6.964;2023-04-08T17:44:44;102208.78;;;11.51;97.81
15308;BME280;7755;52.208;6.964;2023-04-08T17:48:48;102205.22;;;11.43;98.02
15308;BME280;7755;52.208;6.964;2023-04-08T17:52:51;102215.28;;;11.43;98.29
15308;BME280;7755;52.208;6.964;2023-04-08T17:56:54;102213.59;;;11.42;98.00
15308;BME280;7755;52.208;6.964;2023-04-08T18:00:58;102231.38;;;11.38;98.39
15308;BME280;7755;52.208;6.964;2023-04-08T18:05:01;102226.81;;;11.32;98.64
15308;BME280;7755;52.208;6.964;2023-04-08T18:09:05;102237.69;;;11.25;99.36
15308;BME280;7755;52.208;6.964;2023-04-08T18:13:08;102238.09;;;11.22;99.59
15308;BME280;7755;52.208;6.964;2023-04-08T18:17:14;102255.91;;;11.18;99.93
15308;BME280;7755;52.208;6.964;2023-04-08T18:21:17;102244.34;;;11.16;99.98
15308;BME280;7755;52.208;6.964;2023-04-08T18:25:20;102248.53;;;11.05;100.00
15308;BME280;7755;52.208;6.964;2023-04-08T18:29:23;102246.00;;;11.04;100.00
15308;BME280;7755;52.208;6.964;2023-04-08T18:33:28;102246.44;;;11.07;100.00
15308;BME280;7755;52.208;6.964;2023-04-08T18:37:31;102252.31;;;11.04;100.00
15308;BME280;7755;52.208;6.964;2023-04-08T18:41:37;102253.72;;;10.93;100.00
15308;BME280;7755;52.208;6.964;2023-04-08T18:45:40;102262.28;;;10.90;100.00
15308;BME280;7755;52.208;6.964;2023-04-08T18:49:44;102252.66;;;10.88;100.00
15308;BME280;7755;52.208;6.964;2023-04-08T18:53:48;102261.06;;;10.93;100.00
15308;BME280;7755;52.208;6.964;2023-04-08T18:57:52;102268.38;;;10.92;100.00
15308;BME280;7755;52.208;6.964;2023-04-08T19:01:55;102262.28;;;10.77;100.00
15308;BME280;7755;52.208;6.964;2023-04-08T19:06:03;102256.16;;;10.69;100.00
15308;BME280;7755;52.208;6.964;2023-04-08T19:10:07;102253.22;;;10.70;100.00
15308;BME280;7755;52.208;6.964;2023-04-08T19:14:10;102261.13;;;10.58;100.00
15308;BME280;7755;52.208;6.964;2023-04-08T19:18:13;102268.47;;;10.58;100.00
15308;BME280;7755;52.208;6.964;2023-04-08T19:22:17;102267.63;;;10.57;100.00
15308;BME280;7755;52.208;6.964;2023-04-08T19:26:20;102262.59;;;10.61;100.00
15308;BME280;7755;52.208;6.964;2023-04-08T19:30:24;102277.88;;;10.62;100.00
15308;BME280;7755;52.208;6.964;2023-04-08T19:34:27;102273.66;;;10.53;100.00
15308;BME280;7755;52.208;6.964;2023-04-08T19:38:33;102275.31;;;10.47;100.00
15308;BME280;7755;52.208;6.964;2023-04-08T19:42:37;102274.44;;;10.40;100.00
15308;BME280;7755;52.208;6.964;2023-04-08T19:46:42;102289.22;;;10.31;100.00
15308;BME280;7755;52.208;6.964;2023-04-08T19:50:45;102291.34;;;10.35;100.00
15308;BME280;7755;52.208;6.964;2023-04-08T19:54:51;102290.66;;;10.27;100.00
15308;BME280;7755;52.208;6.964;2023-04-08T19:58:54;102283.59;;;10.32;100.00
15308;BME280;7755;52.208;6.964;2023-04-08T20:02:57;102288.97;;;10.26;100.00
15308;BME280;7755;52.208;6.964;2023-04-08T20:07:02;102294.47;;;10.32;100.00
15308;BME280;7755;52.208;6.964;2023-04-08T20:11:07;102297.19;;;10.32;100.00
15308;BME280;7755;52.208;6.964;2023-04-08T20:15:10;102299.94;;;10.39;100.00
15308;BME280;7755;52.208;6.964;2023-04-08T20:19:25;102295.13;;;10.41;100.00
15308;BME280;7755;52.208;6.964;2023-04-08T20:23:28;102307.31;;;10.45;100.00
15308;BME280;7755;52.208;6.964;2023-04-08T20:27:33;102302.91;;;10.44;100.00
15308;BME280;7755;52.208;6.964;2023-04-08T20:31:37;102303.28;;;10.41;100.00
15308;BME280;7755;52.208;6.964;2023-04-08T20:35:41;102309.41;;;10.43;100.00
15308;BME280;7755;52.208;6.964;2023-04-08T20:39:45;102308.53;;;10.43;100.00
15308;BME280;7755;52.208;6.964;2023-04-08T20:43:50;102303.94;;;10.43;100.00
15308;BME280;7755;52.208;6.964;2023-04-08T20:47:54;102303.09;;;10.43;100.00
15308;BME280;7755;52.208;6.964;2023-04-08T20:52:06;102290.75;;;10.40;100.00
15308;BME280;7755;52.208;6.964;2023-04-08T20:56:33;102295.94;;;10.35;100.00
15308;BME280;7755;52.208;6.964;2023-04-08T21:00:56;102290.91;;;10.32;100.00
15308;BME280;7755;52.208;6.964;2023-04-08T21:05:29;102287.03;;;10.20;100.00
15308;BME280;7755;52.208;6.964;2023-04-08T21:09:34;102287.03;;;10.20;100.00
15308;BME280;7755;52.208;6.964;2023-04-08T21:13:37;102286.97;;;10.13;100.00
15308;BME280;7755;52.208;6.964;2023-04-08T21:17:42;102284.63;;;10.03;100.00
15308;BME280;7755;52.208;6.964;2023-04-08T21:21:45;102283.91;;;9.95;100.00
15308;BME280;7755;52.208;6.964;2023-04-08T21:25:48;102282.25;;;9.94;100.00
15308;BME280;7755;52.208;6.964;2023-04-08T21:29:51;102278.69;;;9.93;100.00
15308;BME280;7755;52.208;6.964;2023-04-08T21:33:56;102284.75;;;9.95;100.00
15308;BME280;7755;52.208;6.964;2023-04-08T21:37:58;102281.19;;;9.95;100.00
15308;BME280;7755;52.208;6.964;2023-04-08T21:42:03;102283.75;;;9.96;100.00
15308;BME280;7755;52.208;6.964;2023-04-08T21:46:07;102278.75;;;10.00;100.00
15308;BME280;7755;52.208;6.964;2023-04-08T21:50:11;102276.03;;;10.00;100.00
15308;BME280;7755;52.208;6.964;2023-04-08T21:54:14;102279.19;;;10.03;100.00